2026/07/17

Sensor Date Temp./Hum.
h4-hermonville 17-07-2026 - 23:58 24.6°C / 53%
h2-hermonville 17-07-2026 - 23:54 25.2°C / 54.5%
h1-hermonville 17-07-2026 - 23:54 22.7°C / 58.5%
h3-hermonville 17-07-2026 - 23:51 23.7°C / 56%
h4-hermonville 17-07-2026 - 23:48 24.7°C / 53.5%
h1-hermonville 17-07-2026 - 23:44 22.8°C / 58.5%
h3-hermonville 17-07-2026 - 23:41 23.8°C / 56%
h4-hermonville 17-07-2026 - 23:38 24.7°C / 53%
h2-hermonville 17-07-2026 - 23:34 25.2°C / 54.5%
h1-hermonville 17-07-2026 - 23:34 23°C / 59%
h3-hermonville 17-07-2026 - 23:31 23.7°C / 56.5%
h4-hermonville 17-07-2026 - 23:28 24.6°C / 54%
h2-hermonville 17-07-2026 - 23:24 25.1°C / 54.5%
h1-hermonville 17-07-2026 - 23:24 23°C / 59.5%
h3-hermonville 17-07-2026 - 23:21 23.6°C / 57.5%
h4-hermonville 17-07-2026 - 23:18 24.6°C / 54%
h2-hermonville 17-07-2026 - 23:14 25.5°C / 53%
h1-hermonville 17-07-2026 - 23:14 23.2°C / 59%
h3-hermonville 17-07-2026 - 23:11 23.6°C / 57.5%
h4-hermonville 17-07-2026 - 23:08 24.7°C / 54%
h2-hermonville 17-07-2026 - 23:04 25.5°C / 54.5%
h1-hermonville 17-07-2026 - 23:04 23.1°C / 59.5%
h3-hermonville 17-07-2026 - 23:01 23.7°C / 57.5%
h2-hermonville 17-07-2026 - 22:54 25.1°C / 56%
h1-hermonville 17-07-2026 - 22:54 23.4°C / 60%
h3-hermonville 17-07-2026 - 22:51 23.9°C / 58%
h4-hermonville 17-07-2026 - 22:48 24.8°C / 55%
h2-hermonville 17-07-2026 - 22:44 25.3°C / 56%
h1-hermonville 17-07-2026 - 22:44 23.3°C / 60.5%
h4-hermonville 17-07-2026 - 22:38 24.8°C / 55%
h2-hermonville 17-07-2026 - 22:34 24.6°C / 57.5%
h1-hermonville 17-07-2026 - 22:34 23.8°C / 60%
h3-hermonville 17-07-2026 - 22:31 24°C / 58.5%
h4-hermonville 17-07-2026 - 22:28 25°C / 55%
h2-hermonville 17-07-2026 - 22:24 24.8°C / 58%
h1-hermonville 17-07-2026 - 22:24 23.4°C / 60%
h3-hermonville 17-07-2026 - 22:21 24.3°C / 58%
h4-hermonville 17-07-2026 - 22:18 24.9°C / 55.5%
h2-hermonville 17-07-2026 - 22:14 24.7°C / 58%
h1-hermonville 17-07-2026 - 22:14 23.7°C / 60.5%
h3-hermonville 17-07-2026 - 22:11 24.3°C / 57.5%
h4-hermonville 17-07-2026 - 22:08 25.1°C / 55%
h2-hermonville 17-07-2026 - 22:04 24.3°C / 59.5%
h1-hermonville 17-07-2026 - 22:04 24.1°C / 60%
h3-hermonville 17-07-2026 - 22:01 24.9°C / 57%
h4-hermonville 17-07-2026 - 21:58 25°C / 55.5%
h2-hermonville 17-07-2026 - 21:54 24.4°C / 58.5%
h1-hermonville 17-07-2026 - 21:54 24.3°C / 59%
h3-hermonville 17-07-2026 - 21:51 24.9°C / 56.5%
h4-hermonville 17-07-2026 - 21:48 25.4°C / 54%
h2-hermonville 17-07-2026 - 21:44 25.3°C / 56%
h1-hermonville 17-07-2026 - 21:44 24.3°C / 58%
h3-hermonville 17-07-2026 - 21:41 24.7°C / 56.5%
h4-hermonville 17-07-2026 - 21:38 25.6°C / 53%
h2-hermonville 17-07-2026 - 21:34 25.9°C / 54.5%
h1-hermonville 17-07-2026 - 21:34 24.4°C / 58%
h3-hermonville 17-07-2026 - 21:31 25°C / 56%
h2-hermonville 17-07-2026 - 21:24 25.8°C / 55%
h1-hermonville 17-07-2026 - 21:24 24.6°C / 57.5%
h3-hermonville 17-07-2026 - 21:21 25.3°C / 55%
h2-hermonville 17-07-2026 - 21:14 25.6°C / 55%
h1-hermonville 17-07-2026 - 21:14 25.2°C / 56%
h3-hermonville 17-07-2026 - 21:11 25.8°C / 53.5%
h4-hermonville 17-07-2026 - 21:08 25.8°C / 52%
h2-hermonville 17-07-2026 - 21:04 25.8°C / 53.5%
h1-hermonville 17-07-2026 - 21:04 25.3°C / 55%
h3-hermonville 17-07-2026 - 21:01 25.9°C / 52.5%
h4-hermonville 17-07-2026 - 20:58 26.1°C / 51%
h1-hermonville 17-07-2026 - 20:54 25.5°C / 54%
h3-hermonville 17-07-2026 - 20:51 26.1°C / 51.5%
h2-hermonville 17-07-2026 - 20:44 26.9°C / 49%
h1-hermonville 17-07-2026 - 20:44 25.5°C / 52%
h3-hermonville 17-07-2026 - 20:41 26°C / 50.5%
h4-hermonville 17-07-2026 - 20:38 26.5°C / 48%
h1-hermonville 17-07-2026 - 20:34 25.6°C / 51%
h3-hermonville 17-07-2026 - 20:31 25.9°C / 49.5%
h4-hermonville 17-07-2026 - 20:28 26.5°C / 47.5%
h2-hermonville 17-07-2026 - 20:24 28.1°C / 46%
h1-hermonville 17-07-2026 - 20:24 25.7°C / 50%
h3-hermonville 17-07-2026 - 20:21 26°C / 48.5%
h2-hermonville 17-07-2026 - 20:14 28.3°C / 45.5%
h1-hermonville 17-07-2026 - 20:14 25.7°C / 49%
h3-hermonville 17-07-2026 - 20:11 26.1°C / 48%
h4-hermonville 17-07-2026 - 20:08 26.6°C / 46.5%
h2-hermonville 17-07-2026 - 20:04 28.4°C / 45.5%
h1-hermonville 17-07-2026 - 20:04 25.9°C / 49%
h3-hermonville 17-07-2026 - 20:01 26.1°C / 48.5%
h4-hermonville 17-07-2026 - 19:58 26.5°C / 47%
h2-hermonville 17-07-2026 - 19:54 29.6°C / 42.5%
h1-hermonville 17-07-2026 - 19:54 25.7°C / 49.5%
h3-hermonville 17-07-2026 - 19:51 26°C / 48.5%
h4-hermonville 17-07-2026 - 19:48 26.5°C / 46.5%
h2-hermonville 17-07-2026 - 19:44 30.3°C / 41%
h3-hermonville 17-07-2026 - 19:41 26°C / 48%
h4-hermonville 17-07-2026 - 19:38 26.5°C / 46.5%
h1-hermonville 17-07-2026 - 19:34 25.7°C / 49%
h3-hermonville 17-07-2026 - 19:31 26.1°C / 47.5%
h2-hermonville 17-07-2026 - 19:24 29.3°C / 42.5%
h1-hermonville 17-07-2026 - 19:24 25.6°C / 48.5%
h3-hermonville 17-07-2026 - 19:21 26.1°C / 47.5%
h4-hermonville 17-07-2026 - 19:18 26.7°C / 45.5%
h2-hermonville 17-07-2026 - 19:14 29.4°C / 42%
h1-hermonville 17-07-2026 - 19:14 25.8°C / 48%
h3-hermonville 17-07-2026 - 19:11 26.1°C / 47%
h4-hermonville 17-07-2026 - 19:08 26.7°C / 45%
h2-hermonville 17-07-2026 - 19:04 30.2°C / 40.5%
h1-hermonville 17-07-2026 - 19:04 25.8°C / 47.5%
h2-hermonville 17-07-2026 - 18:54 31.7°C / 38%
h1-hermonville 17-07-2026 - 18:54 26.1°C / 47%
h3-hermonville 17-07-2026 - 18:51 26.5°C / 46%
h4-hermonville 17-07-2026 - 18:48 27.1°C / 44.5%
h2-hermonville 17-07-2026 - 18:44 31.7°C / 38.5%
h1-hermonville 17-07-2026 - 18:44 26.1°C / 46.5%
h3-hermonville 17-07-2026 - 18:41 26.2°C / 45.5%
h4-hermonville 17-07-2026 - 18:38 27.1°C / 43.5%
h2-hermonville 17-07-2026 - 18:34 31.2°C / 39%
h1-hermonville 17-07-2026 - 18:34 26.1°C / 46%
h3-hermonville 17-07-2026 - 18:31 26.2°C / 45.5%
h4-hermonville 17-07-2026 - 18:28 27.1°C / 43.5%
h2-hermonville 17-07-2026 - 18:24 30.2°C / 39.5%
h1-hermonville 17-07-2026 - 18:24 26.2°C / 45.5%
h3-hermonville 17-07-2026 - 18:21 26.1°C / 45%
h4-hermonville 17-07-2026 - 18:18 27.1°C / 43.5%
h2-hermonville 17-07-2026 - 18:14 29.2°C / 44%
h3-hermonville 17-07-2026 - 18:11 26.3°C / 45.5%
h4-hermonville 17-07-2026 - 18:08 27.2°C / 44%
h2-hermonville 17-07-2026 - 18:04 28.6°C / 45%
h1-hermonville 17-07-2026 - 18:04 25.9°C / 46%
h3-hermonville 17-07-2026 - 18:01 26.5°C / 45%
h4-hermonville 17-07-2026 - 17:58 27.3°C / 44.5%
h2-hermonville 17-07-2026 - 17:54 28.6°C / 46.5%
h1-hermonville 17-07-2026 - 17:54 25.9°C / 47.5%
h3-hermonville 17-07-2026 - 17:51 26.4°C / 46.5%
h2-hermonville 17-07-2026 - 17:44 27.9°C / 47.5%
h1-hermonville 17-07-2026 - 17:44 26°C / 48.5%
h3-hermonville 17-07-2026 - 17:41 26.6°C / 47.5%
h4-hermonville 17-07-2026 - 17:38 27.3°C / 46%
h2-hermonville 17-07-2026 - 17:34 27.9°C / 48.5%
h1-hermonville 17-07-2026 - 17:34 25.9°C / 49%
h3-hermonville 17-07-2026 - 17:31 26.7°C / 47.5%
h4-hermonville 17-07-2026 - 17:28 27.3°C / 46%
h2-hermonville 17-07-2026 - 17:24 27.8°C / 46.5%
h1-hermonville 17-07-2026 - 17:24 25.9°C / 49%
h2-hermonville 17-07-2026 - 17:14 27.6°C / 48%
h1-hermonville 17-07-2026 - 17:14 25.8°C / 49.5%
h3-hermonville 17-07-2026 - 17:11 26.6°C / 49%
h4-hermonville 17-07-2026 - 17:08 27.3°C / 46%
h2-hermonville 17-07-2026 - 17:04 27.8°C / 50.5%
h1-hermonville 17-07-2026 - 17:04 25.9°C / 50%
h3-hermonville 17-07-2026 - 17:01 26.6°C / 49%
h4-hermonville 17-07-2026 - 16:58 27.4°C / 47%
h2-hermonville 17-07-2026 - 16:54 27.6°C / 51%
h1-hermonville 17-07-2026 - 16:54 25.9°C / 51%
h3-hermonville 17-07-2026 - 16:51 26.7°C / 49.5%
h4-hermonville 17-07-2026 - 16:48 27.4°C / 47.5%
h2-hermonville 17-07-2026 - 16:44 27.6°C / 52%
h1-hermonville 17-07-2026 - 16:44 26°C / 52.5%
h3-hermonville 17-07-2026 - 16:41 26.6°C / 51%
h4-hermonville 17-07-2026 - 16:38 27.4°C / 49%
h2-hermonville 17-07-2026 - 16:34 27.5°C / 51.5%
h1-hermonville 17-07-2026 - 16:34 25.6°C / 54%
h3-hermonville 17-07-2026 - 16:31 26.2°C / 51.5%
h4-hermonville 17-07-2026 - 16:28 27.2°C / 49%
h2-hermonville 17-07-2026 - 16:24 27.6°C / 53%
h1-hermonville 17-07-2026 - 16:24 25.5°C / 54%
h3-hermonville 17-07-2026 - 16:21 26.4°C / 53.5%
h4-hermonville 17-07-2026 - 16:18 27.1°C / 50.5%
h2-hermonville 17-07-2026 - 16:14 27.8°C / 51.5%
h1-hermonville 17-07-2026 - 16:14 25.5°C / 55.5%
h4-hermonville 17-07-2026 - 16:08 27.2°C / 50%
h1-hermonville 17-07-2026 - 16:04 25.5°C / 54.5%
h3-hermonville 17-07-2026 - 16:01 26.2°C / 52.5%
h4-hermonville 17-07-2026 - 15:58 27.2°C / 50%
h2-hermonville 17-07-2026 - 15:54 27.8°C / 52.5%
h1-hermonville 17-07-2026 - 15:54 25.6°C / 54.5%
h3-hermonville 17-07-2026 - 15:51 26.2°C / 54%
h4-hermonville 17-07-2026 - 15:48 27.2°C / 51.5%
h2-hermonville 17-07-2026 - 15:44 27.7°C / 51%
h1-hermonville 17-07-2026 - 15:44 25.4°C / 56.5%
h3-hermonville 17-07-2026 - 15:41 25.9°C / 57%
h2-hermonville 17-07-2026 - 15:34 27.8°C / 53%
h1-hermonville 17-07-2026 - 15:34 25.3°C / 59%
h3-hermonville 17-07-2026 - 15:31 26°C / 56%
h4-hermonville 17-07-2026 - 15:28 27.5°C / 51%
h2-hermonville 17-07-2026 - 15:24 28°C / 53.5%
h1-hermonville 17-07-2026 - 15:24 25.3°C / 57%
h3-hermonville 17-07-2026 - 15:21 26.6°C / 54.5%
h2-hermonville 17-07-2026 - 15:14 27.8°C / 54%
h1-hermonville 17-07-2026 - 15:14 25.3°C / 59%
h3-hermonville 17-07-2026 - 15:11 26.6°C / 55%
h4-hermonville 17-07-2026 - 15:08 27.7°C / 51%
st2-saintremi 17-07-2026 - 15:07 30.4°C / 43.5%
st2-saintremi 17-07-2026 - 15:06 30.4°C / 42.5%
st2-saintremi 17-07-2026 - 15:05 30.3°C / 42.5%
h2-hermonville 17-07-2026 - 15:04 27.7°C / 54.5%
st2-saintremi 17-07-2026 - 15:04 30.3°C / 43%
h1-hermonville 17-07-2026 - 15:04 25.3°C / 59.5%
st2-saintremi 17-07-2026 - 15:03 30.3°C / 43%
st2-saintremi 17-07-2026 - 15:01 30.6°C / 43%
h3-hermonville 17-07-2026 - 15:01 26.4°C / 55.5%
st2-saintremi 17-07-2026 - 15:00 30.5°C / 43%
st2-saintremi 17-07-2026 - 14:59 30.6°C / 43%
h4-hermonville 17-07-2026 - 14:58 27.8°C / 50.5%
st2-saintremi 17-07-2026 - 14:57 30.6°C / 42.5%
st2-saintremi 17-07-2026 - 14:56 30.6°C / 42.5%
st2-saintremi 17-07-2026 - 14:55 30.5°C / 44.5%
h2-hermonville 17-07-2026 - 14:54 27.6°C / 54%
st2-saintremi 17-07-2026 - 14:54 30.3°C / 45%
h1-hermonville 17-07-2026 - 14:54 25.4°C / 57.5%
st2-saintremi 17-07-2026 - 14:53 30.3°C / 45.5%
st2-saintremi 17-07-2026 - 14:52 30.2°C / 48%
st2-saintremi 17-07-2026 - 14:51 30.1°C / 42.5%
h3-hermonville 17-07-2026 - 14:51 26.8°C / 54%
st2-saintremi 17-07-2026 - 14:50 30.2°C / 42.5%
h4-hermonville 17-07-2026 - 14:48 28°C / 50%
h2-hermonville 17-07-2026 - 14:44 27.6°C / 54.5%
h1-hermonville 17-07-2026 - 14:44 25.6°C / 57.5%
h3-hermonville 17-07-2026 - 14:41 27°C / 53.5%
h4-hermonville 17-07-2026 - 14:38 28.1°C / 50.5%
h2-hermonville 17-07-2026 - 14:34 27.7°C / 54.5%
h1-hermonville 17-07-2026 - 14:34 25.5°C / 58.5%
h3-hermonville 17-07-2026 - 14:31 26.8°C / 54%
h2-hermonville 17-07-2026 - 14:24 28°C / 54.5%
h1-hermonville 17-07-2026 - 14:24 25.6°C / 58%
st2-saintremi 17-07-2026 - 14:23 31.9°C / 40%
h3-hermonville 17-07-2026 - 14:21 26.9°C / 55.5%
h4-hermonville 17-07-2026 - 14:18 28.3°C / 50.5%
h2-hermonville 17-07-2026 - 14:14 28.1°C / 54.5%
h1-hermonville 17-07-2026 - 14:14 25.7°C / 58.5%
h3-hermonville 17-07-2026 - 14:11 26.7°C / 56%
h4-hermonville 17-07-2026 - 14:08 28.4°C / 50.5%
h2-hermonville 17-07-2026 - 14:04 28.1°C / 55%
h1-hermonville 17-07-2026 - 14:04 25.5°C / 60%
h3-hermonville 17-07-2026 - 14:01 27°C / 56%
h4-hermonville 17-07-2026 - 13:58 28°C / 51%
h2-hermonville 17-07-2026 - 13:54 27.7°C / 56%
h1-hermonville 17-07-2026 - 13:54 25.3°C / 60%
h3-hermonville 17-07-2026 - 13:51 26.7°C / 56.5%
h4-hermonville 17-07-2026 - 13:48 28.1°C / 52%
h2-hermonville 17-07-2026 - 13:44 27.2°C / 57%
h1-hermonville 17-07-2026 - 13:44 25.3°C / 60.5%
h4-hermonville 17-07-2026 - 13:38 28.2°C / 51%
h2-hermonville 17-07-2026 - 13:34 27.2°C / 56%
h1-hermonville 17-07-2026 - 13:34 25°C / 60.5%
h4-hermonville 17-07-2026 - 13:28 28.1°C / 51%
h2-hermonville 17-07-2026 - 13:24 26.7°C / 58%
h1-hermonville 17-07-2026 - 13:24 25°C / 60.5%
st2-saintremi 17-07-2026 - 13:23 28.2°C / 48.5%
h3-hermonville 17-07-2026 - 13:21 25.5°C / 59%
h4-hermonville 17-07-2026 - 13:18 28°C / 50.5%
h2-hermonville 17-07-2026 - 13:14 26.6°C / 59.5%
h1-hermonville 17-07-2026 - 13:14 24.8°C / 63%
h3-hermonville 17-07-2026 - 13:11 25.3°C / 60.5%
h4-hermonville 17-07-2026 - 13:08 28.2°C / 50.5%
h2-hermonville 17-07-2026 - 13:04 26.6°C / 59%
h1-hermonville 17-07-2026 - 13:04 24.7°C / 63%
h3-hermonville 17-07-2026 - 13:01 25.8°C / 59%
h4-hermonville 17-07-2026 - 12:58 28.6°C / 50%
h2-hermonville 17-07-2026 - 12:54 26.4°C / 60.5%
h1-hermonville 17-07-2026 - 12:54 25.1°C / 62%
h3-hermonville 17-07-2026 - 12:51 25.7°C / 59.5%
h4-hermonville 17-07-2026 - 12:48 28.8°C / 50.5%
h2-hermonville 17-07-2026 - 12:44 26.6°C / 61%
h1-hermonville 17-07-2026 - 12:44 24.7°C / 64%
h3-hermonville 17-07-2026 - 12:41 25.2°C / 59.5%
h4-hermonville 17-07-2026 - 12:38 29.3°C / 48.5%
h2-hermonville 17-07-2026 - 12:34 26°C / 62.5%
h1-hermonville 17-07-2026 - 12:34 24.5°C / 61.5%
h3-hermonville 17-07-2026 - 12:31 25.1°C / 61.5%
h2-hermonville 17-07-2026 - 12:24 25.7°C / 62.5%
h1-hermonville 17-07-2026 - 12:24 24°C / 65.5%
st2-saintremi 17-07-2026 - 12:23 27.5°C / 50.5%
h3-hermonville 17-07-2026 - 12:21 24.7°C / 61.5%
h4-hermonville 17-07-2026 - 12:18 29.9°C / 46%
h2-hermonville 17-07-2026 - 12:14 25.1°C / 65%
h1-hermonville 17-07-2026 - 12:14 24°C / 65%
h3-hermonville 17-07-2026 - 12:11 24.7°C / 62.5%
h2-hermonville 17-07-2026 - 12:04 25.1°C / 63.5%
h1-hermonville 17-07-2026 - 12:04 23.8°C / 67.5%
h3-hermonville 17-07-2026 - 12:01 24.6°C / 63%
h4-hermonville 17-07-2026 - 11:58 32.1°C / 44.5%
h1-hermonville 17-07-2026 - 11:54 23.3°C / 71%
h3-hermonville 17-07-2026 - 11:51 23.9°C / 67%
h4-hermonville 17-07-2026 - 11:48 30.3°C / 48%
h1-hermonville 17-07-2026 - 11:44 23°C / 70%
h3-hermonville 17-07-2026 - 11:41 24.1°C / 67%
h4-hermonville 17-07-2026 - 11:38 30.3°C / 48.5%
h2-hermonville 17-07-2026 - 11:34 24.5°C / 68.5%
h1-hermonville 17-07-2026 - 11:34 23°C / 72.5%
h3-hermonville 17-07-2026 - 11:31 24.6°C / 67.5%
h4-hermonville 17-07-2026 - 11:28 30.5°C / 49%
h1-hermonville 17-07-2026 - 11:24 23.4°C / 72.5%
h2-hermonville 17-07-2026 - 11:24 24.3°C / 71.5%
st2-saintremi 17-07-2026 - 11:23 27.4°C / 54%
h3-hermonville 17-07-2026 - 11:21 24.6°C / 69%
h4-hermonville 17-07-2026 - 11:18 31.9°C / 46.5%
h2-hermonville 17-07-2026 - 11:14 24.6°C / 70.5%
h1-hermonville 17-07-2026 - 11:14 23°C / 75%
h4-hermonville 17-07-2026 - 11:08 32.7°C / 45%
h2-hermonville 17-07-2026 - 11:04 23.9°C / 72.5%
h1-hermonville 17-07-2026 - 11:04 22.1°C / 77.5%
h4-hermonville 17-07-2026 - 10:58 32.6°C / 45.5%
h1-hermonville 17-07-2026 - 10:54 21.8°C / 79.5%
h3-hermonville 17-07-2026 - 10:51 23.7°C / 72.5%
h4-hermonville 17-07-2026 - 10:48 32.8°C / 45.5%
h2-hermonville 17-07-2026 - 10:44 23.2°C / 74.5%
h1-hermonville 17-07-2026 - 10:44 21.5°C / 79.5%
h3-hermonville 17-07-2026 - 10:41 23.4°C / 73.5%
h4-hermonville 17-07-2026 - 10:38 31.8°C / 47.5%
h2-hermonville 17-07-2026 - 10:34 22.7°C / 76%
h1-hermonville 17-07-2026 - 10:34 21.4°C / 80.5%
h3-hermonville 17-07-2026 - 10:31 23.1°C / 75%
h4-hermonville 17-07-2026 - 10:28 30.6°C / 50.5%
h2-hermonville 17-07-2026 - 10:24 22.4°C / 77%
h1-hermonville 17-07-2026 - 10:24 20.6°C / 83.5%
st2-saintremi 17-07-2026 - 10:23 26.8°C / 56%
h3-hermonville 17-07-2026 - 10:21 22.9°C / 75%
h4-hermonville 17-07-2026 - 10:18 30°C / 51.5%
h2-hermonville 17-07-2026 - 10:14 22.6°C / 76%
h1-hermonville 17-07-2026 - 10:14 20.3°C / 83%
h3-hermonville 17-07-2026 - 10:11 22.6°C / 76%
h4-hermonville 17-07-2026 - 10:08 27.8°C / 57%
h2-hermonville 17-07-2026 - 10:04 22.5°C / 76%
h1-hermonville 17-07-2026 - 10:04 20.5°C / 84%
h3-hermonville 17-07-2026 - 10:01 22.1°C / 77.5%
h4-hermonville 17-07-2026 - 09:58 25.2°C / 65.5%
h2-hermonville 17-07-2026 - 09:54 23.2°C / 74.5%
h1-hermonville 17-07-2026 - 09:54 20°C / 85.5%
h3-hermonville 17-07-2026 - 09:51 21.6°C / 78%
h4-hermonville 17-07-2026 - 09:48 24.4°C / 66.5%
h2-hermonville 17-07-2026 - 09:44 23°C / 75.5%
h1-hermonville 17-07-2026 - 09:44 19.9°C / 85.5%
h3-hermonville 17-07-2026 - 09:41 21.8°C / 78.5%
h4-hermonville 17-07-2026 - 09:38 24.5°C / 66.5%
h2-hermonville 17-07-2026 - 09:34 22.7°C / 76.5%
h1-hermonville 17-07-2026 - 09:34 20.2°C / 85.5%
h3-hermonville 17-07-2026 - 09:31 21.6°C / 77.5%
h4-hermonville 17-07-2026 - 09:28 25.4°C / 63%
h2-hermonville 17-07-2026 - 09:24 22.5°C / 76.5%
st2-saintremi 17-07-2026 - 09:23 28.9°C / 47.5%
h3-hermonville 17-07-2026 - 09:21 22°C / 78%
h4-hermonville 17-07-2026 - 09:18 26.2°C / 61%
h2-hermonville 17-07-2026 - 09:14 21.9°C / 78.5%
h1-hermonville 17-07-2026 - 09:14 20.5°C / 83.5%
h3-hermonville 17-07-2026 - 09:11 21.7°C / 76%
h2-hermonville 17-07-2026 - 09:04 22.5°C / 77%
h1-hermonville 17-07-2026 - 09:04 20.2°C / 84%
h3-hermonville 17-07-2026 - 09:01 21.7°C / 77%
h4-hermonville 17-07-2026 - 08:58 25.4°C / 63.5%
h2-hermonville 17-07-2026 - 08:54 21.7°C / 80%
h1-hermonville 17-07-2026 - 08:54 20.4°C / 83%
h3-hermonville 17-07-2026 - 08:51 21.8°C / 77%
h4-hermonville 17-07-2026 - 08:48 24.9°C / 65.5%
h2-hermonville 17-07-2026 - 08:44 21.3°C / 82%
h1-hermonville 17-07-2026 - 08:44 20.7°C / 83%
h3-hermonville 17-07-2026 - 08:41 21.6°C / 77.5%
h4-hermonville 17-07-2026 - 08:38 24.9°C / 65%
h2-hermonville 17-07-2026 - 08:34 21°C / 83%
h1-hermonville 17-07-2026 - 08:34 20.9°C / 81.5%
h3-hermonville 17-07-2026 - 08:31 21.3°C / 79.5%
h4-hermonville 17-07-2026 - 08:28 24.5°C / 67%
h2-hermonville 17-07-2026 - 08:24 20.5°C / 83%
h1-hermonville 17-07-2026 - 08:24 20.9°C / 81%
st2-saintremi 17-07-2026 - 08:23 28.6°C / 47.5%
h3-hermonville 17-07-2026 - 08:21 20.9°C / 80.5%
h4-hermonville 17-07-2026 - 08:18 24°C / 69%
h2-hermonville 17-07-2026 - 08:14 20.2°C / 85.5%
h1-hermonville 17-07-2026 - 08:14 20.8°C / 83%
h2-hermonville 17-07-2026 - 08:04 20°C / 86%
h3-hermonville 17-07-2026 - 08:01 19.8°C / 85.5%
h4-hermonville 17-07-2026 - 07:58 23.2°C / 70%
h2-hermonville 17-07-2026 - 07:54 19.6°C / 86.5%
h1-hermonville 17-07-2026 - 07:54 20.6°C / 82.5%
h3-hermonville 17-07-2026 - 07:51 20.1°C / 83%
h4-hermonville 17-07-2026 - 07:48 22.8°C / 71.5%
h2-hermonville 17-07-2026 - 07:44 19.8°C / 87%
h1-hermonville 17-07-2026 - 07:44 19.7°C / 87%
h3-hermonville 17-07-2026 - 07:41 21°C / 80.5%
h4-hermonville 17-07-2026 - 07:38 22.4°C / 74%
h2-hermonville 17-07-2026 - 07:34 19.7°C / 87.5%
h1-hermonville 17-07-2026 - 07:34 19.3°C / 87.5%
h4-hermonville 17-07-2026 - 07:28 21.9°C / 75.5%
h1-hermonville 17-07-2026 - 07:24 20°C / 85%
st2-saintremi 17-07-2026 - 07:23 28.5°C / 47%
h3-hermonville 17-07-2026 - 07:21 20°C / 85.5%
h4-hermonville 17-07-2026 - 07:18 22.2°C / 73.5%
h1-hermonville 17-07-2026 - 07:14 19.7°C / 86%
h3-hermonville 17-07-2026 - 07:11 20.5°C / 80.5%
h4-hermonville 17-07-2026 - 07:08 21.6°C / 77%
h1-hermonville 17-07-2026 - 07:04 19.4°C / 89%
h3-hermonville 17-07-2026 - 07:01 20.2°C / 83.5%
h4-hermonville 17-07-2026 - 06:58 21°C / 78.5%
h1-hermonville 17-07-2026 - 06:54 19.1°C / 89%
h3-hermonville 17-07-2026 - 06:51 20.3°C / 83.5%
h4-hermonville 17-07-2026 - 06:48 21.1°C / 77.5%
h2-hermonville 17-07-2026 - 06:44 20.2°C / 85%
h3-hermonville 17-07-2026 - 06:41 20.1°C / 83.5%
h4-hermonville 17-07-2026 - 06:38 21.1°C / 77.5%
h2-hermonville 17-07-2026 - 06:34 19.9°C / 84.5%
h1-hermonville 17-07-2026 - 06:34 19.6°C / 87%
h3-hermonville 17-07-2026 - 06:31 19.8°C / 84%
h4-hermonville 17-07-2026 - 06:28 21.6°C / 75%
h2-hermonville 17-07-2026 - 06:24 20°C / 84%
h1-hermonville 17-07-2026 - 06:24 19.5°C / 87%
st2-saintremi 17-07-2026 - 06:23 28.6°C / 46.5%
h3-hermonville 17-07-2026 - 06:21 19.7°C / 84%
h4-hermonville 17-07-2026 - 06:18 22.3°C / 72%
h1-hermonville 17-07-2026 - 06:14 19.6°C / 87%
h3-hermonville 17-07-2026 - 06:11 20.3°C / 81.5%
h4-hermonville 17-07-2026 - 06:08 21.9°C / 74.5%
h2-hermonville 17-07-2026 - 06:04 20.5°C / 82%
h1-hermonville 17-07-2026 - 06:04 18.9°C / 89.5%
h3-hermonville 17-07-2026 - 06:01 21.3°C / 78.5%
h4-hermonville 17-07-2026 - 05:58 22.4°C / 73%
h2-hermonville 17-07-2026 - 05:54 21.2°C / 81%
h1-hermonville 17-07-2026 - 05:54 18.7°C / 90%
h3-hermonville 17-07-2026 - 05:51 21.3°C / 78%
h4-hermonville 17-07-2026 - 05:48 22°C / 74%
h2-hermonville 17-07-2026 - 05:44 20.8°C / 82%
h3-hermonville 17-07-2026 - 05:41 21.6°C / 77.5%
h4-hermonville 17-07-2026 - 05:38 21°C / 78.5%
h2-hermonville 17-07-2026 - 05:34 21.5°C / 80%
h3-hermonville 17-07-2026 - 05:31 21.4°C / 78.5%
h4-hermonville 17-07-2026 - 05:28 22.4°C / 72.5%
h2-hermonville 17-07-2026 - 05:24 20.1°C / 84.5%
h1-hermonville 17-07-2026 - 05:24 19.5°C / 86.5%
st2-saintremi 17-07-2026 - 05:23 28.8°C / 46%
h3-hermonville 17-07-2026 - 05:21 21.5°C / 77%
h4-hermonville 17-07-2026 - 05:18 23.1°C / 69%
h2-hermonville 17-07-2026 - 05:14 20.2°C / 84.5%
h1-hermonville 17-07-2026 - 05:14 19.9°C / 85%
h1-hermonville 17-07-2026 - 05:04 20.8°C / 81.5%
h3-hermonville 17-07-2026 - 05:01 20.3°C / 82.5%
h4-hermonville 17-07-2026 - 04:58 23.1°C / 69%
h2-hermonville 17-07-2026 - 04:54 20°C / 84.5%
h1-hermonville 17-07-2026 - 04:54 20.5°C / 82.5%
h3-hermonville 17-07-2026 - 04:51 20.5°C / 79.5%
h4-hermonville 17-07-2026 - 04:48 22.8°C / 70%
h2-hermonville 17-07-2026 - 04:44 20.3°C / 83%
h1-hermonville 17-07-2026 - 04:44 19.6°C / 87.5%
h3-hermonville 17-07-2026 - 04:41 21.5°C / 78.5%
h4-hermonville 17-07-2026 - 04:38 22.2°C / 74%
h2-hermonville 17-07-2026 - 04:34 21°C / 82.5%
h1-hermonville 17-07-2026 - 04:34 19°C / 89.5%
h3-hermonville 17-07-2026 - 04:31 21.5°C / 78.5%
h4-hermonville 17-07-2026 - 04:28 22.7°C / 71%
h2-hermonville 17-07-2026 - 04:24 20.5°C / 84.5%
st2-saintremi 17-07-2026 - 04:23 29.4°C / 43%
h3-hermonville 17-07-2026 - 04:21 20.5°C / 80%
h4-hermonville 17-07-2026 - 04:18 23.4°C / 68%
h2-hermonville 17-07-2026 - 04:14 21.1°C / 81.5%
h1-hermonville 17-07-2026 - 04:14 19.4°C / 88.5%
h4-hermonville 17-07-2026 - 04:08 23.7°C / 66%
h2-hermonville 17-07-2026 - 04:04 22.3°C / 76.5%
h1-hermonville 17-07-2026 - 04:04 19°C / 88%
h3-hermonville 17-07-2026 - 04:01 21.7°C / 76.5%
h4-hermonville 17-07-2026 - 03:58 23.7°C / 66.5%
h2-hermonville 17-07-2026 - 03:54 21.8°C / 79%
h1-hermonville 17-07-2026 - 03:54 20.2°C / 80.5%
h3-hermonville 17-07-2026 - 03:51 22.1°C / 71.5%
h4-hermonville 17-07-2026 - 03:48 23.6°C / 66.5%
h2-hermonville 17-07-2026 - 03:44 20.7°C / 81%
h1-hermonville 17-07-2026 - 03:44 22.1°C / 73%
h3-hermonville 17-07-2026 - 03:41 22.3°C / 73%
h4-hermonville 17-07-2026 - 03:38 23.6°C / 65.5%
h2-hermonville 17-07-2026 - 03:34 20.9°C / 80%
h1-hermonville 17-07-2026 - 03:34 22.1°C / 73%
h3-hermonville 17-07-2026 - 03:31 22.1°C / 74.5%
h4-hermonville 17-07-2026 - 03:28 23.7°C / 65.5%
h2-hermonville 17-07-2026 - 03:24 20.9°C / 82.5%
h1-hermonville 17-07-2026 - 03:24 22.1°C / 72.5%
st2-saintremi 17-07-2026 - 03:23 30.2°C / 37.5%
h3-hermonville 17-07-2026 - 03:21 20.9°C / 74.5%
h4-hermonville 17-07-2026 - 03:18 24.2°C / 61.5%
h2-hermonville 17-07-2026 - 03:14 20.3°C / 85.5%
h1-hermonville 17-07-2026 - 03:14 22.1°C / 70%
h4-hermonville 17-07-2026 - 03:08 24.8°C / 56.5%
h2-hermonville 17-07-2026 - 03:04 23.9°C / 60%
h1-hermonville 17-07-2026 - 03:04 22.2°C / 65.5%
h4-hermonville 17-07-2026 - 02:58 24.8°C / 56%
h2-hermonville 17-07-2026 - 02:54 25.4°C / 55.5%
h1-hermonville 17-07-2026 - 02:54 21.8°C / 67%
h3-hermonville 17-07-2026 - 02:51 23.5°C / 60.5%
h4-hermonville 17-07-2026 - 02:48 25°C / 54.5%
h2-hermonville 17-07-2026 - 02:44 25.5°C / 54.5%
h1-hermonville 17-07-2026 - 02:44 21.9°C / 65.5%
h3-hermonville 17-07-2026 - 02:41 23.9°C / 57.5%
h4-hermonville 17-07-2026 - 02:38 25.1°C / 53%
h2-hermonville 17-07-2026 - 02:34 25.2°C / 55%
h1-hermonville 17-07-2026 - 02:34 22.4°C / 61%
h3-hermonville 17-07-2026 - 02:31 24°C / 56%
h4-hermonville 17-07-2026 - 02:28 25.3°C / 52%
h2-hermonville 17-07-2026 - 02:24 24.7°C / 56.5%
h1-hermonville 17-07-2026 - 02:24 22.3°C / 60.5%
st2-saintremi 17-07-2026 - 02:23 30.9°C / 35%
h3-hermonville 17-07-2026 - 02:21 24°C / 56.5%
h2-hermonville 17-07-2026 - 02:14 24.2°C / 57.5%
h1-hermonville 17-07-2026 - 02:14 22.2°C / 62%
h3-hermonville 17-07-2026 - 02:11 24.3°C / 57%
h4-hermonville 17-07-2026 - 02:08 25.1°C / 52.5%
h2-hermonville 17-07-2026 - 02:04 23.8°C / 58%
h1-hermonville 17-07-2026 - 02:04 22.3°C / 62%
h3-hermonville 17-07-2026 - 02:01 24.4°C / 56%
h4-hermonville 17-07-2026 - 01:58 25°C / 53%
h2-hermonville 17-07-2026 - 01:54 24°C / 58%
h1-hermonville 17-07-2026 - 01:54 22.3°C / 62.5%
h3-hermonville 17-07-2026 - 01:51 24.3°C / 57.5%
h4-hermonville 17-07-2026 - 01:48 25.5°C / 52.5%
h2-hermonville 17-07-2026 - 01:44 24.4°C / 58%
h1-hermonville 17-07-2026 - 01:44 22.2°C / 63%
h3-hermonville 17-07-2026 - 01:41 23.9°C / 58%
h4-hermonville 17-07-2026 - 01:38 25.6°C / 52.5%
h2-hermonville 17-07-2026 - 01:34 24.4°C / 59%
h1-hermonville 17-07-2026 - 01:34 22.2°C / 63%
h3-hermonville 17-07-2026 - 01:31 23.9°C / 58.5%
h4-hermonville 17-07-2026 - 01:28 26°C / 52.5%
h2-hermonville 17-07-2026 - 01:24 24.5°C / 59.5%
h1-hermonville 17-07-2026 - 01:24 22.3°C / 63.5%
st2-saintremi 17-07-2026 - 01:23 31.4°C / 33.5%
h3-hermonville 17-07-2026 - 01:21 24.2°C / 58.5%
h4-hermonville 17-07-2026 - 01:18 26.1°C / 51.5%
h2-hermonville 17-07-2026 - 01:14 25.4°C / 56.5%
h1-hermonville 17-07-2026 - 01:14 22.4°C / 62.5%
h3-hermonville 17-07-2026 - 01:11 24.2°C / 59%
h4-hermonville 17-07-2026 - 01:08 26.1°C / 52%
h2-hermonville 17-07-2026 - 01:04 26.1°C / 55.5%
h1-hermonville 17-07-2026 - 01:04 22.5°C / 63%
h3-hermonville 17-07-2026 - 01:01 24.6°C / 58%
h4-hermonville 17-07-2026 - 00:58 26.1°C / 50.5%
h2-hermonville 17-07-2026 - 00:54 27.1°C / 52%
h1-hermonville 17-07-2026 - 00:54 22.7°C / 60.5%
h3-hermonville 17-07-2026 - 00:51 25.1°C / 55.5%
h4-hermonville 17-07-2026 - 00:48 26.3°C / 48.5%
h2-hermonville 17-07-2026 - 00:44 27.5°C / 47.5%
h1-hermonville 17-07-2026 - 00:44 23.7°C / 54.5%
h3-hermonville 17-07-2026 - 00:41 25.3°C / 49%
h4-hermonville 17-07-2026 - 00:38 26.4°C / 46%
h2-hermonville 17-07-2026 - 00:34 27.5°C / 45%
h1-hermonville 17-07-2026 - 00:34 24°C / 52.5%
h3-hermonville 17-07-2026 - 00:31 25.4°C / 48.5%
h4-hermonville 17-07-2026 - 00:28 26.3°C / 45.5%
h2-hermonville 17-07-2026 - 00:24 27.5°C / 44.5%
h1-hermonville 17-07-2026 - 00:24 24.1°C / 52%
st2-saintremi 17-07-2026 - 00:23 32.1°C / 32.5%
h3-hermonville 17-07-2026 - 00:21 25.5°C / 47.5%
h4-hermonville 17-07-2026 - 00:18 26.4°C / 45%
h2-hermonville 17-07-2026 - 00:14 27.5°C / 43.5%
h1-hermonville 17-07-2026 - 00:14 24.2°C / 51%
h3-hermonville 17-07-2026 - 00:11 25.7°C / 46.5%
h4-hermonville 17-07-2026 - 00:08 26.5°C / 44.5%
h2-hermonville 17-07-2026 - 00:04 27.8°C / 43.5%
h1-hermonville 17-07-2026 - 00:04 24.3°C / 50%
h3-hermonville 17-07-2026 - 00:01 25.8°C / 46%